sensor_id;sensor_type;location;lat;lon;timestamp;pressure;altitude;pressure_sealevel;temperature;humidity
23574;BME280;11965;53.640;10.050;2023-12-14T00:01:12;100806.22;;;3.38;100.00
23574;BME280;11965;53.640;10.050;2023-12-14T00:03:41;100800.47;;;3.31;100.00
23574;BME280;11965;53.640;10.050;2023-12-14T00:06:09;100810.72;;;3.29;100.00
23574;BME280;11965;53.640;10.050;2023-12-14T00:08:37;100814.63;;;3.27;100.00
23574;BME280;11965;53.640;10.050;2023-12-14T00:11:08;100819.84;;;3.20;100.00
23574;BME280;11965;53.640;10.050;2023-12-14T00:13:36;100828.47;;;3.25;100.00
23574;BME280;11965;53.640;10.050;2023-12-14T00:16:04;100827.03;;;3.31;100.00
23574;BME280;11965;53.640;10.050;2023-12-14T00:18:31;100837.69;;;3.34;100.00
23574;BME280;11965;53.640;10.050;2023-12-14T00:21:00;100838.53;;;3.35;100.00
23574;BME280;11965;53.640;10.050;2023-12-14T00:23:27;100838.09;;;3.39;100.00
23574;BME280;11965;53.640;10.050;2023-12-14T00:25:53;100832.16;;;3.44;100.00
23574;BME280;11965;53.640;10.050;2023-12-14T00:28:21;100835.34;;;3.39;100.00
23574;BME280;11965;53.640;10.050;2023-12-14T00:30:49;100838.97;;;3.40;100.00
23574;BME280;11965;53.640;10.050;2023-12-14T00:33:15;100844.13;;;3.52;100.00
23574;BME280;11965;53.640;10.050;2023-12-14T00:35:42;100847.16;;;3.49;100.00
23574;BME280;11965;53.640;10.050;2023-12-14T00:38:11;100858.91;;;3.69;100.00
23574;BME280;11965;53.640;10.050;2023-12-14T00:40:37;100864.09;;;3.72;100.00
23574;BME280;11965;53.640;10.050;2023-12-14T00:43:04;100869.13;;;3.77;100.00
23574;BME280;11965;53.640;10.050;2023-12-14T00:45:31;100878.63;;;3.83;100.00
23574;BME280;11965;53.640;10.050;2023-12-14T00:47:58;100881.50;;;3.81;100.00
23574;BME280;11965;53.640;10.050;2023-12-14T00:50:25;100878.63;;;3.83;100.00
23574;BME280;11965;53.640;10.050;2023-12-14T00:52:52;100884.66;;;3.86;100.00
23574;BME280;11965;53.640;10.050;2023-12-14T00:55:20;100895.06;;;3.83;100.00
23574;BME280;11965;53.640;10.050;2023-12-14T00:57:47;100900.41;;;3.84;100.00
23574;BME280;11965;53.640;10.050;2023-12-14T01:00:14;100895.94;;;3.83;100.00
23574;BME280;11965;53.640;10.050;2023-12-14T01:02:41;100892.19;;;3.84;100.00
23574;BME280;11965;53.640;10.050;2023-12-14T01:05:08;100896.66;;;3.85;100.00
23574;BME280;11965;53.640;10.050;2023-12-14T01:07:35;100908.47;;;3.86;100.00
23574;BME280;11965;53.640;10.050;2023-12-14T01:10:03;100912.06;;;3.86;100.00
23574;BME280;11965;53.640;10.050;2023-12-14T01:12:31;100908.78;;;3.83;100.00
23574;BME280;11965;53.640;10.050;2023-12-14T01:14:58;100913.09;;;3.85;100.00
23574;BME280;11965;53.640;10.050;2023-12-14T01:17:25;100923.34;;;3.83;100.00
23574;BME280;11965;53.640;10.050;2023-12-14T01:19:53;100913.97;;;3.86;100.00
23574;BME280;11965;53.640;10.050;2023-12-14T01:22:20;100931.69;;;3.91;100.00
23574;BME280;11965;53.640;10.050;2023-12-14T01:24:47;100929.81;;;3.92;100.00
23574;BME280;11965;53.640;10.050;2023-12-14T01:27:14;100927.66;;;3.95;100.00
23574;BME280;11965;53.640;10.050;2023-12-14T01:29:42;100930.97;;;3.89;100.00
23574;BME280;11965;53.640;10.050;2023-12-14T01:32:09;100930.59;;;3.84;100.00
23574;BME280;11965;53.640;10.050;2023-12-14T01:34:35;100938.44;;;3.97;100.00
23574;BME280;11965;53.640;10.050;2023-12-14T01:37:03;100942.97;;;3.88;100.00
23574;BME280;11965;53.640;10.050;2023-12-14T01:39:30;100942.09;;;3.88;100.00
23574;BME280;11965;53.640;10.050;2023-12-14T01:41:57;100947.47;;;3.80;100.00
23574;BME280;11965;53.640;10.050;2023-12-14T01:44:24;100952.03;;;3.89;100.00
23574;BME280;11965;53.640;10.050;2023-12-14T01:46:52;100950.69;;;4.03;100.00
23574;BME280;11965;53.640;10.050;2023-12-14T01:49:19;100960.56;;;3.95;100.00
23574;BME280;11965;53.640;10.050;2023-12-14T01:51:46;100957.69;;;3.87;100.00
23574;BME280;11965;53.640;10.050;2023-12-14T01:54:13;100955.94;;;3.86;100.00
23574;BME280;11965;53.640;10.050;2023-12-14T01:56:40;100959.22;;;3.99;100.00
23574;BME280;11965;53.640;10.050;2023-12-14T01:59:07;100964.16;;;3.96;100.00
23574;BME280;11965;53.640;10.050;2023-12-14T02:01:39;100963.47;;;3.84;100.00
23574;BME280;11965;53.640;10.050;2023-12-14T02:04:10;100963.06;;;3.79;100.00
23574;BME280;11965;53.640;10.050;2023-12-14T02:06:38;100958.13;;;3.92;100.00
23574;BME280;11965;53.640;10.050;2023-12-14T02:09:06;100962.88;;;3.90;100.00
23574;BME280;11965;53.640;10.050;2023-12-14T02:11:33;100972.09;;;3.89;100.00
23574;BME280;11965;53.640;10.050;2023-12-14T02:14:03;100972.53;;;3.94;100.00
23574;BME280;11965;53.640;10.050;2023-12-14T02:16:30;100973.81;;;4.00;100.00
23574;BME280;11965;53.640;10.050;2023-12-14T02:18:58;100974.28;;;3.95;100.00
23574;BME280;11965;53.640;10.050;2023-12-14T02:21:26;100979.34;;;3.90;100.00
23574;BME280;11965;53.640;10.050;2023-12-14T02:23:54;100982.94;;;3.91;100.00
23574;BME280;11965;53.640;10.050;2023-12-14T02:26:21;100988.41;;;3.91;100.00
23574;BME280;11965;53.640;10.050;2023-12-14T02:28:48;100985.25;;;3.86;100.00
23574;BME280;11965;53.640;10.050;2023-12-14T02:31:15;100983.97;;;3.90;100.00
23574;BME280;11965;53.640;10.050;2023-12-14T02:33:42;100986.09;;;3.86;100.00
23574;BME280;11965;53.640;10.050;2023-12-14T02:36:09;100990.72;;;3.86;100.00
23574;BME280;11965;53.640;10.050;2023-12-14T02:38:36;100987.44;;;3.82;100.00
23574;BME280;11965;53.640;10.050;2023-12-14T02:41:05;100992.31;;;3.79;100.00
23574;BME280;11965;53.640;10.050;2023-12-14T02:43:31;100989.75;;;3.77;100.00
23574;BME280;11965;53.640;10.050;2023-12-14T02:45:59;100998.97;;;3.76;100.00
23574;BME280;11965;53.640;10.050;2023-12-14T02:48:27;100998.69;;;3.79;100.00
23574;BME280;11965;53.640;10.050;2023-12-14T02:50:55;101003.47;;;3.77;100.00
23574;BME280;11965;53.640;10.050;2023-12-14T02:53:22;101007.91;;;3.78;100.00
23574;BME280;11965;53.640;10.050;2023-12-14T02:55:49;101014.00;;;3.82;100.00
23574;BME280;11965;53.640;10.050;2023-12-14T02:58:18;101010.34;;;3.81;100.00
23574;BME280;11965;53.640;10.050;2023-12-14T03:00:45;101017.88;;;3.79;100.00
23574;BME280;11965;53.640;10.050;2023-12-14T03:03:12;101018.75;;;3.80;100.00
23574;BME280;11965;53.640;10.050;2023-12-14T03:05:38;101018.75;;;3.80;100.00
23574;BME280;11965;53.640;10.050;2023-12-14T03:08:05;101027.28;;;3.76;100.00
23574;BME280;11965;53.640;10.050;2023-12-14T03:10:32;101037.34;;;3.76;100.00
23574;BME280;11965;53.640;10.050;2023-12-14T03:12:59;101034.78;;;3.74;100.00
23574;BME280;11965;53.640;10.050;2023-12-14T03:15:27;101034.91;;;3.73;100.00
23574;BME280;11965;53.640;10.050;2023-12-14T03:17:54;101041.09;;;3.75;100.00
23574;BME280;11965;53.640;10.050;2023-12-14T03:20:21;101048.88;;;3.89;100.00
23574;BME280;11965;53.640;10.050;2023-12-14T03:22:48;101055.69;;;3.85;100.00
23574;BME280;11965;53.640;10.050;2023-12-14T03:25:15;101058.72;;;3.82;100.00
23574;BME280;11965;53.640;10.050;2023-12-14T03:27:42;101052.63;;;3.79;100.00
23574;BME280;11965;53.640;10.050;2023-12-14T03:30:09;101052.06;;;3.75;100.00
23574;BME280;11965;53.640;10.050;2023-12-14T03:32:38;101054.53;;;3.78;100.00
23574;BME280;11965;53.640;10.050;2023-12-14T03:35:05;101048.47;;;3.74;100.00
23574;BME280;11965;53.640;10.050;2023-12-14T03:37:34;101062.75;;;3.78;100.00
23574;BME280;11965;53.640;10.050;2023-12-14T03:40:01;101060.16;;;3.86;100.00
23574;BME280;11965;53.640;10.050;2023-12-14T03:42:28;101063.19;;;3.83;100.00
23574;BME280;11965;53.640;10.050;2023-12-14T03:44:54;101066.78;;;3.84;100.00
23574;BME280;11965;53.640;10.050;2023-12-14T03:47:21;101062.19;;;3.84;100.00
23574;BME280;11965;53.640;10.050;2023-12-14T03:49:49;101066.78;;;3.84;100.00
23574;BME280;11965;53.640;10.050;2023-12-14T03:52:16;101076.59;;;3.86;100.00
23574;BME280;11965;53.640;10.050;2023-12-14T03:54:43;101075.44;;;3.89;100.00
23574;BME280;11965;53.640;10.050;2023-12-14T03:57:10;101070.53;;;3.83;100.00
23574;BME280;11965;53.640;10.050;2023-12-14T03:59:39;101080.66;;;3.82;100.00
23574;BME280;11965;53.640;10.050;2023-12-14T04:02:06;101083.81;;;3.78;100.00
23574;BME280;11965;53.640;10.050;2023-12-14T04:04:33;101093.94;;;3.77;100.00
23574;BME280;11965;53.640;10.050;2023-12-14T04:07:01;101077.06;;;3.82;100.00
23574;BME280;11965;53.640;10.050;2023-12-14T04:09:28;101083.53;;;3.81;100.00
23574;BME280;11965;53.640;10.050;2023-12-14T04:11:55;101091.63;;;3.82;100.00
23574;BME280;11965;53.640;10.050;2023-12-14T04:14:22;101094.66;;;3.79;100.00
23574;BME280;11965;53.640;10.050;2023-12-14T04:16:49;101093.94;;;3.77;100.00
23574;BME280;11965;53.640;10.050;2023-12-14T04:19:15;101099.41;;;3.77;100.00
23574;BME280;11965;53.640;10.050;2023-12-14T04:21:42;101095.38;;;3.71;100.00
23574;BME280;11965;53.640;10.050;2023-12-14T04:24:11;101103.44;;;3.73;100.00
23574;BME280;11965;53.640;10.050;2023-12-14T04:26:38;101101.56;;;3.83;100.00
23574;BME280;11965;53.640;10.050;2023-12-14T04:29:05;101104.72;;;3.79;100.00
23574;BME280;11965;53.640;10.050;2023-12-14T04:31:34;101115.13;;;3.94;100.00
23574;BME280;11965;53.640;10.050;2023-12-14T04:34:01;101112.69;;;3.91;100.00
23574;BME280;11965;53.640;10.050;2023-12-14T04:36:28;101113.41;;;3.93;100.00
23574;BME280;11965;53.640;10.050;2023-12-14T04:38:55;101118.59;;;3.96;100.00
23574;BME280;11965;53.640;10.050;2023-12-14T04:41:23;101118.44;;;3.79;100.00
23574;BME280;11965;53.640;10.050;2023-12-14T04:43:50;101117.88;;;3.75;100.00
23574;BME280;11965;53.640;10.050;2023-12-14T04:46:17;101117.31;;;3.71;100.00
23574;BME280;11965;53.640;10.050;2023-12-14T04:48:43;101129.00;;;3.73;100.00
23574;BME280;11965;53.640;10.050;2023-12-14T04:51:13;101134.75;;;3.70;100.00
23574;BME280;11965;53.640;10.050;2023-12-14T04:53:40;101140.53;;;3.87;100.00
23574;BME280;11965;53.640;10.050;2023-12-14T04:56:10;101143.13;;;4.08;100.00
23574;BME280;11965;53.640;10.050;2023-12-14T04:58:41;101141.69;;;3.94;100.00
23574;BME280;11965;53.640;10.050;2023-12-14T05:01:08;101151.66;;;3.95;100.00
23574;BME280;11965;53.640;10.050;2023-12-14T05:03:36;101156.84;;;3.88;100.00
23574;BME280;11965;53.640;10.050;2023-12-14T05:06:03;101157.69;;;3.89;100.00
23574;BME280;11965;53.640;10.050;2023-12-14T05:08:30;101160.75;;;3.86;100.00
23574;BME280;11965;53.640;10.050;2023-12-14T05:10:57;101146.44;;;3.72;100.00
23574;BME280;11965;53.640;10.050;2023-12-14T05:13:24;101155.53;;;3.73;100.00
23574;BME280;11965;53.640;10.050;2023-12-14T05:15:53;101159.00;;;3.75;100.00
23574;BME280;11965;53.640;10.050;2023-12-14T05:18:19;101168.84;;;3.87;100.00
23574;BME280;11965;53.640;10.050;2023-12-14T05:20:47;101165.50;;;3.74;100.00
23574;BME280;11965;53.640;10.050;2023-12-14T05:23:14;101172.56;;;3.67;100.00
23574;BME280;11965;53.640;10.050;2023-12-14T05:25:41;101171.81;;;3.65;100.00
23574;BME280;11965;53.640;10.050;2023-12-14T05:28:07;101181.09;;;3.73;100.00
23574;BME280;11965;53.640;10.050;2023-12-14T05:30:35;101195.63;;;3.64;100.00
23574;BME280;11965;53.640;10.050;2023-12-14T05:33:03;101192.44;;;3.59;100.00
23574;BME280;11965;53.640;10.050;2023-12-14T05:35:30;101198.69;;;3.71;100.00
23574;BME280;11965;53.640;10.050;2023-12-14T05:37:57;101204.59;;;3.76;100.00
23574;BME280;11965;53.640;10.050;2023-12-14T05:40:23;101202.88;;;3.75;100.00
23574;BME280;11965;53.640;10.050;2023-12-14T05:42:50;101202.28;;;3.71;100.00
23574;BME280;11965;53.640;10.050;2023-12-14T05:45:17;101209.06;;;3.77;100.00
23574;BME280;11965;53.640;10.050;2023-12-14T05:47:44;101209.75;;;3.60;100.00
23574;BME280;11965;53.640;10.050;2023-12-14T05:50:12;101216.53;;;3.56;100.00
23574;BME280;11965;53.640;10.050;2023-12-14T05:52:39;101229.56;;;3.83;100.00
23574;BME280;11965;53.640;10.050;2023-12-14T05:55:08;101228.44;;;3.85;100.00
23574;BME280;11965;53.640;10.050;2023-12-14T05:57:36;101229.31;;;3.95;100.00
23574;BME280;11965;53.640;10.050;2023-12-14T06:00:03;101240.22;;;3.76;100.00
23574;BME280;11965;53.640;10.050;2023-12-14T06:02:31;101245.81;;;3.55;100.00
23574;BME280;11965;53.640;10.050;2023-12-14T06:04:58;101242.28;;;3.43;100.00
23574;BME280;11965;53.640;10.050;2023-12-14T06:07:26;101250.69;;;3.42;100.00
23574;BME280;11965;53.640;10.050;2023-12-14T06:09:53;101245.81;;;3.55;100.00
23574;BME280;11965;53.640;10.050;2023-12-14T06:12:20;101239.19;;;3.58;100.00
23574;BME280;11965;53.640;10.050;2023-12-14T06:14:47;101259.47;;;3.45;100.00
23574;BME280;11965;53.640;10.050;2023-12-14T06:17:14;101256.69;;;3.36;100.00
23574;BME280;11965;53.640;10.050;2023-12-14T06:19:41;101255.25;;;3.31;100.00
23574;BME280;11965;53.640;10.050;2023-12-14T06:22:08;101252.91;;;3.58;100.00
23574;BME280;11965;53.640;10.050;2023-12-14T06:24:36;101252.84;;;3.48;100.00
23574;BME280;11965;53.640;10.050;2023-12-14T06:27:03;101256.91;;;3.53;100.00
23574;BME280;11965;53.640;10.050;2023-12-14T06:29:31;101258.16;;;3.40;100.00
23574;BME280;11965;53.640;10.050;2023-12-14T06:31:57;101257.94;;;3.52;100.00
23574;BME280;11965;53.640;10.050;2023-12-14T06:34:24;101279.97;;;3.41;100.00
23574;BME280;11965;53.640;10.050;2023-12-14T06:36:51;101288.66;;;3.56;100.00
23574;BME280;11965;53.640;10.050;2023-12-14T06:39:18;101296.00;;;3.56;100.00
23574;BME280;11965;53.640;10.050;2023-12-14T06:41:46;101296.06;;;3.75;100.00
23574;BME280;11965;53.640;10.050;2023-12-14T06:44:13;101304.41;;;3.64;100.00
23574;BME280;11965;53.640;10.050;2023-12-14T06:46:40;101305.66;;;3.50;100.00
23574;BME280;11965;53.640;10.050;2023-12-14T06:49:07;101300.00;;;3.42;100.00
23574;BME280;11965;53.640;10.050;2023-12-14T06:51:34;101306.16;;;3.34;100.00
23574;BME280;11965;53.640;10.050;2023-12-14T06:54:01;101309.75;;;3.35;100.00
23574;BME280;11965;53.640;10.050;2023-12-14T06:56:27;101309.44;;;3.28;100.00
23574;BME280;11965;53.640;10.050;2023-12-14T06:58:56;101310.81;;;3.43;100.00
23574;BME280;11965;53.640;10.050;2023-12-14T07:01:23;101309.94;;;3.43;100.00
23574;BME280;11965;53.640;10.050;2023-12-14T07:03:50;101317.88;;;3.46;100.00
23574;BME280;11965;53.640;10.050;2023-12-14T07:06:19;101307.09;;;3.54;100.00
23574;BME280;11965;53.640;10.050;2023-12-14T07:08:46;101313.38;;;3.35;100.00
23574;BME280;11965;53.640;10.050;2023-12-14T07:11:14;101307.16;;;3.33;100.00
23574;BME280;11965;53.640;10.050;2023-12-14T07:13:40;101326.38;;;3.43;100.00
23574;BME280;11965;53.640;10.050;2023-12-14T07:16:10;101325.13;;;3.47;100.00
23574;BME280;11965;53.640;10.050;2023-12-14T07:18:38;101338.28;;;3.53;100.00
23574;BME280;11965;53.640;10.050;2023-12-14T07:21:06;101346.84;;;3.39;100.00
23574;BME280;11965;53.640;10.050;2023-12-14T07:23:34;101350.84;;;3.56;100.00
23574;BME280;11965;53.640;10.050;2023-12-14T07:26:01;101356.09;;;3.68;100.00
23574;BME280;11965;53.640;10.050;2023-12-14T07:28:29;101364.50;;;3.76;100.00
23574;BME280;11965;53.640;10.050;2023-12-14T07:30:56;101371.94;;;3.65;100.00
23574;BME280;11965;53.640;10.050;2023-12-14T07:33:24;101374.25;;;3.69;100.00
23574;BME280;11965;53.640;10.050;2023-12-14T07:35:51;101377.13;;;3.68;100.00
23574;BME280;11965;53.640;10.050;2023-12-14T07:38:18;101375.63;;;3.54;100.00
23574;BME280;11965;53.640;10.050;2023-12-14T07:40:45;101389.44;;;3.73;100.00
23574;BME280;11965;53.640;10.050;2023-12-14T07:43:12;101397.78;;;3.72;100.00
23574;BME280;11965;53.640;10.050;2023-12-14T07:45:39;101401.78;;;3.58;100.00
23574;BME280;11965;53.640;10.050;2023-12-14T07:48:06;101404.69;;;3.66;100.00
23574;BME280;11965;53.640;10.050;2023-12-14T07:50:34;101397.06;;;3.70;100.00
23574;BME280;11965;53.640;10.050;2023-12-14T07:53:01;101408.50;;;3.54;100.00
23574;BME280;11965;53.640;10.050;2023-12-14T07:55:28;101406.69;;;3.64;100.00
23574;BME280;11965;53.640;10.050;2023-12-14T07:57:55;101406.56;;;3.66;100.00
23574;BME280;11965;53.640;10.050;2023-12-14T08:00:22;101422.28;;;3.64;100.00
23574;BME280;11965;53.640;10.050;2023-12-14T08:02:49;101426.84;;;3.53;100.00
23574;BME280;11965;53.640;10.050;2023-12-14T08:05:16;101434.19;;;3.53;100.00
23574;BME280;11965;53.640;10.050;2023-12-14T08:07:44;101431.19;;;3.56;100.00
23574;BME280;11965;53.640;10.050;2023-12-14T08:10:11;101420.09;;;3.58;100.00
23574;BME280;11965;53.640;10.050;2023-12-14T08:12:38;101432.41;;;3.42;100.00
23574;BME280;11965;53.640;10.050;2023-12-14T08:15:05;101435.88;;;3.44;100.00
23574;BME280;11965;53.640;10.050;2023-12-14T08:17:33;101444.50;;;3.61;100.00
23574;BME280;11965;53.640;10.050;2023-12-14T08:20:00;101451.50;;;3.74;100.00
23574;BME280;11965;53.640;10.050;2023-12-14T08:22:27;101450.72;;;3.63;100.00
23574;BME280;11965;53.640;10.050;2023-12-14T08:24:55;101450.91;;;3.71;100.00
23574;BME280;11965;53.640;10.050;2023-12-14T08:27:22;101458.94;;;3.63;100.00
23574;BME280;11965;53.640;10.050;2023-12-14T08:29:49;101464.16;;;3.66;100.00
23574;BME280;11965;53.640;10.050;2023-12-14T08:32:16;101460.38;;;3.67;100.00
23574;BME280;11965;53.640;10.050;2023-12-14T08:34:43;101464.63;;;3.71;100.00
23574;BME280;11965;53.640;10.050;2023-12-14T08:37:10;101477.38;;;3.82;100.00
23574;BME280;11965;53.640;10.050;2023-12-14T08:39:37;101478.50;;;3.79;100.00
23574;BME280;11965;53.640;10.050;2023-12-14T08:42:06;101479.94;;;3.73;100.00
23574;BME280;11965;53.640;10.050;2023-12-14T08:44:33;101478.69;;;3.87;100.00
23574;BME280;11965;53.640;10.050;2023-12-14T08:47:00;101486.19;;;3.85;100.00
23574;BME280;11965;53.640;10.050;2023-12-14T08:49:29;101493.69;;;3.83;100.00
23574;BME280;11965;53.640;10.050;2023-12-14T08:51:56;101495.63;;;3.92;100.00
23574;BME280;11965;53.640;10.050;2023-12-14T08:54:22;101508.88;;;3.87;100.00
23574;BME280;11965;53.640;10.050;2023-12-14T08:56:50;101514.53;;;4.16;100.00
23574;BME280;11965;53.640;10.050;2023-12-14T08:59:19;101511.84;;;4.05;100.00
23574;BME280;11965;53.640;10.050;2023-12-14T09:01:46;101510.00;;;4.06;100.00
23574;BME280;11965;53.640;10.050;2023-12-14T09:04:13;101520.75;;;3.97;100.00
23574;BME280;11965;53.640;10.050;2023-12-14T09:06:40;101523.28;;;3.89;100.00
23574;BME280;11965;53.640;10.050;2023-12-14T09:09:10;101515.25;;;3.97;100.00
23574;BME280;11965;53.640;10.050;2023-12-14T09:11:38;101522.97;;;4.04;100.00
23574;BME280;11965;53.640;10.050;2023-12-14T09:14:06;101518.56;;;3.91;100.00
23574;BME280;11965;53.640;10.050;2023-12-14T09:16:34;101524.03;;;3.91;100.00
23574;BME280;11965;53.640;10.050;2023-12-14T09:19:01;101520.13;;;3.84;100.00
23574;BME280;11965;53.640;10.050;2023-12-14T09:21:28;101531.13;;;3.94;100.00
23574;BME280;11965;53.640;10.050;2023-12-14T09:23:55;101533.28;;;3.90;100.00
23574;BME280;11965;53.640;10.050;2023-12-14T09:26:22;101535.81;;;4.03;100.00
23574;BME280;11965;53.640;10.050;2023-12-14T09:28:51;101545.78;;;4.04;100.00
23574;BME280;11965;53.640;10.050;2023-12-14T09:31:18;101541.97;;;4.16;100.00
23574;BME280;11965;53.640;10.050;2023-12-14T09:33:46;101548.69;;;4.33;100.00
23574;BME280;11965;53.640;10.050;2023-12-14T09:36:13;101549.00;;;4.40;100.00
23574;BME280;11965;53.640;10.050;2023-12-14T09:38:41;101563.66;;;4.29;100.00
23574;BME280;11965;53.640;10.050;2023-12-14T09:41:08;101560.09;;;4.08;100.00
23574;BME280;11965;53.640;10.050;2023-12-14T09:43:35;101551.91;;;4.17;100.00
23574;BME280;11965;53.640;10.050;2023-12-14T09:46:03;101566.38;;;4.19;100.00
23574;BME280;11965;53.640;10.050;2023-12-14T09:48:31;101554.47;;;4.09;100.00
23574;BME280;11965;53.640;10.050;2023-12-14T09:51:00;101555.44;;;4.29;100.00
23574;BME280;11965;53.640;10.050;2023-12-14T09:53:27;101557.19;;;4.30;100.00
23574;BME280;11965;53.640;10.050;2023-12-14T09:55:54;101554.50;;;4.19;100.00
23574;BME280;11965;53.640;10.050;2023-12-14T09:58:21;101554.72;;;4.27;100.00
23574;BME280;11965;53.640;10.050;2023-12-14T10:00:48;101566.69;;;4.26;100.00
23574;BME280;11965;53.640;10.050;2023-12-14T10:03:23;101566.97;;;4.23;100.00
23574;BME280;11965;53.640;10.050;2023-12-14T10:05:52;101565.34;;;4.41;100.00
23574;BME280;11965;53.640;10.050;2023-12-14T10:08:21;101569.13;;;4.50;100.00
23574;BME280;11965;53.640;10.050;2023-12-14T10:10:50;101570.41;;;4.46;100.00
23574;BME280;11965;53.640;10.050;2023-12-14T10:13:18;101577.72;;;4.67;100.00
23574;BME280;11965;53.640;10.050;2023-12-14T10:15:47;101569.63;;;4.65;100.00
23574;BME280;11965;53.640;10.050;2023-12-14T10:18:21;101589.19;;;4.51;100.00
23574;BME280;11965;53.640;10.050;2023-12-14T10:20:49;101588.75;;;4.46;100.00
23574;BME280;11965;53.640;10.050;2023-12-14T10:23:16;101585.03;;;4.56;100.00
23574;BME280;11965;53.640;10.050;2023-12-14T10:25:45;101595.72;;;4.50;100.00
23574;BME280;11965;53.640;10.050;2023-12-14T10:28:12;101593.78;;;4.71;100.00
23574;BME280;11965;53.640;10.050;2023-12-14T10:30:40;101605.41;;;4.54;100.00
23574;BME280;11965;53.640;10.050;2023-12-14T10:33:07;101604.88;;;4.60;100.00
23574;BME280;11965;53.640;10.050;2023-12-14T10:35:34;101611.31;;;4.49;100.00
23574;BME280;11965;53.640;10.050;2023-12-14T10:38:03;101609.81;;;4.35;100.00
23574;BME280;11965;53.640;10.050;2023-12-14T10:40:31;101618.72;;;4.28;100.00
23574;BME280;11965;53.640;10.050;2023-12-14T10:43:01;101624.00;;;4.19;100.00
23574;BME280;11965;53.640;10.050;2023-12-14T10:45:32;101624.66;;;4.12;100.00
23574;BME280;11965;53.640;10.050;2023-12-14T10:48:00;101618.25;;;4.23;100.00
23574;BME280;11965;53.640;10.050;2023-12-14T10:50:30;101630.56;;;4.59;100.00
23574;BME280;11965;53.640;10.050;2023-12-14T10:52:57;101633.47;;;4.57;100.00
23574;BME280;11965;53.640;10.050;2023-12-14T10:55:29;101640.59;;;4.70;100.00
23574;BME280;11965;53.640;10.050;2023-12-14T10:57:59;101640.22;;;4.53;100.00
23574;BME280;11965;53.640;10.050;2023-12-14T11:00:27;101644.47;;;4.36;100.00
23574;BME280;11965;53.640;10.050;2023-12-14T11:02:54;101656.59;;;4.34;100.00
23574;BME280;11965;53.640;10.050;2023-12-14T11:05:23;101653.44;;;4.59;100.00
23574;BME280;11965;53.640;10.050;2023-12-14T11:07:56;101658.22;;;4.98;100.00
23574;BME280;11965;53.640;10.050;2023-12-14T11:10:38;101660.69;;;5.01;100.00
23574;BME280;11965;53.640;10.050;2023-12-14T11:13:09;101654.69;;;5.17;100.00
23574;BME280;11965;53.640;10.050;2023-12-14T11:15:38;101666.25;;;5.11;100.00
23574;BME280;11965;53.640;10.050;2023-12-14T11:18:23;101673.00;;;5.06;100.00
23574;BME280;11965;53.640;10.050;2023-12-14T11:20:53;101679.53;;;5.05;100.00
23574;BME280;11965;53.640;10.050;2023-12-14T11:23:30;101680.56;;;5.14;100.00
23574;BME280;11965;53.640;10.050;2023-12-14T11:25:58;101683.75;;;4.88;100.00
23574;BME280;11965;53.640;10.050;2023-12-14T11:28:28;101680.09;;;5.09;100.00
23574;BME280;11965;53.640;10.050;2023-12-14T11:30:55;101689.09;;;5.21;100.00
23574;BME280;11965;53.640;10.050;2023-12-14T11:33:22;101685.22;;;5.23;100.00
23574;BME280;11965;53.640;10.050;2023-12-14T11:35:50;101680.00;;;5.20;100.00
23574;BME280;11965;53.640;10.050;2023-12-14T11:38:18;101686.09;;;5.24;100.00
23574;BME280;11965;53.640;10.050;2023-12-14T11:40:47;101693.03;;;5.28;100.00
23574;BME280;11965;53.640;10.050;2023-12-14T11:43:15;101695.75;;;5.18;100.00
23574;BME280;11965;53.640;10.050;2023-12-14T11:45:43;101702.03;;;5.30;100.00
23574;BME280;11965;53.640;10.050;2023-12-14T11:48:12;101698.94;;;5.14;100.00
23574;BME280;11965;53.640;10.050;2023-12-14T11:50:40;101703.44;;;4.94;100.00
23574;BME280;11965;53.640;10.050;2023-12-14T11:53:08;101711.88;;;5.02;100.00
23574;BME280;11965;53.640;10.050;2023-12-14T11:55:37;101706.19;;;4.94;100.00
23574;BME280;11965;53.640;10.050;2023-12-14T11:58:04;101710.44;;;5.07;100.00
23574;BME280;11965;53.640;10.050;2023-12-14T12:00:33;101715.31;;;4.94;100.00
23574;BME280;11965;53.640;10.050;2023-12-14T12:03:10;101710.09;;;4.91;100.00
23574;BME280;11965;53.640;10.050;2023-12-14T12:05:39;101719.28;;;4.80;100.00
23574;BME280;11965;53.640;10.050;2023-12-14T12:08:06;101714.59;;;4.92;100.00
23574;BME280;11965;53.640;10.050;2023-12-14T12:10:34;101718.03;;;4.84;100.00
23574;BME280;11965;53.640;10.050;2023-12-14T12:13:02;101711.28;;;4.98;100.00
23574;BME280;11965;53.640;10.050;2023-12-14T12:15:31;101722.97;;;4.91;100.00
23574;BME280;11965;53.640;10.050;2023-12-14T12:17:59;101711.50;;;4.85;100.00
23574;BME280;11965;53.640;10.050;2023-12-14T12:20:27;101720.69;;;4.75;100.00
23574;BME280;11965;53.640;10.050;2023-12-14T12:22:54;101721.91;;;4.82;100.00
23574;BME280;11965;53.640;10.050;2023-12-14T12:25:21;101729.75;;;4.65;100.00
23574;BME280;11965;53.640;10.050;2023-12-14T12:27:48;101727.88;;;4.66;100.00
23574;BME280;11965;53.640;10.050;2023-12-14T12:30:15;101731.56;;;4.76;100.00
23574;BME280;11965;53.640;10.050;2023-12-14T12:32:42;101733.69;;;4.73;100.00
23574;BME280;11965;53.640;10.050;2023-12-14T12:35:09;101740.34;;;4.70;100.00
23574;BME280;11965;53.640;10.050;2023-12-14T12:37:37;101734.69;;;4.51;100.00
23574;BME280;11965;53.640;10.050;2023-12-14T12:40:06;101738.41;;;4.61;100.00
23574;BME280;11965;53.640;10.050;2023-12-14T12:42:34;101733.66;;;4.63;100.00